createdAt,value
2018-03-14T00:00:24.371Z,15.48
2018-03-14T00:02:53.299Z,15.07
2018-03-14T00:05:21.470Z,13.43
2018-03-14T00:07:49.653Z,13.57
2018-03-14T00:10:17.854Z,12.40
2018-03-14T00:12:46.014Z,14.07
2018-03-14T00:15:14.188Z,13.98
2018-03-14T00:17:42.350Z,14.40
2018-03-14T00:20:10.549Z,13.75
2018-03-14T00:22:38.706Z,13.25
2018-03-14T00:25:06.873Z,14.60
2018-03-14T00:27:35.177Z,13.52
2018-03-14T00:30:03.430Z,13.35
2018-03-14T00:32:31.843Z,14.57
2018-03-14T00:35:00.041Z,13.07
2018-03-14T00:37:28.203Z,15.65
2018-03-14T00:39:57.129Z,16.37
2018-03-14T00:42:25.317Z,15.45
2018-03-14T00:44:53.530Z,16.77
2018-03-14T00:47:21.698Z,16.73
2018-03-14T00:49:50.622Z,16.98
2018-03-14T00:52:18.842Z,17.00
2018-03-14T00:54:46.996Z,16.05
2018-03-14T00:57:15.199Z,15.63
2018-03-14T00:59:43.399Z,15.75
2018-03-14T01:02:12.322Z,16.60
2018-03-14T01:04:40.487Z,14.98
2018-03-14T01:07:08.770Z,14.85
2018-03-14T01:09:36.926Z,17.05
2018-03-14T01:12:05.086Z,15.10
2018-03-14T01:14:33.275Z,16.48
2018-03-14T01:17:01.449Z,17.48
2018-03-14T01:19:29.598Z,16.30
2018-03-14T01:21:58.558Z,16.95
2018-03-14T01:24:26.720Z,16.77
2018-03-14T01:26:54.874Z,16.27
2018-03-14T01:29:23.117Z,15.82
2018-03-14T01:31:51.217Z,15.52
2018-03-14T01:34:19.418Z,15.45
2018-03-14T01:36:47.622Z,16.30
2018-03-14T01:39:16.542Z,15.98
2018-03-14T01:41:44.715Z,15.07
2018-03-14T01:44:12.922Z,14.80
2018-03-14T01:46:41.105Z,14.90
2018-03-14T01:49:09.266Z,15.25
2018-03-14T01:51:37.430Z,13.50
2018-03-14T01:54:05.681Z,13.55
2018-03-14T01:56:33.841Z,13.55
2018-03-14T01:59:02.003Z,13.50
2018-03-14T02:01:30.953Z,13.35
2018-03-14T02:03:59.101Z,13.77
2018-03-14T02:06:27.254Z,13.48
2018-03-14T02:08:55.448Z,13.70
2018-03-14T02:11:23.631Z,15.40
2018-03-14T02:13:51.810Z,13.62
2018-03-14T02:16:20.004Z,13.88
2018-03-14T02:18:48.159Z,14.20
2018-03-14T02:21:16.302Z,13.70
2018-03-14T02:23:44.508Z,12.80
2018-03-14T02:26:13.612Z,11.73
2018-03-14T02:28:41.762Z,11.10
2018-03-14T02:31:09.955Z,13.05
2018-03-14T02:33:38.119Z,12.00
2018-03-14T02:36:06.278Z,13.57
2018-03-14T02:38:34.462Z,11.35
2018-03-14T02:41:02.623Z,12.52
2018-03-14T02:43:30.790Z,10.25
2018-03-14T02:45:58.969Z,11.50
2018-03-14T02:48:27.110Z,10.35
2018-03-14T02:50:56.067Z,10.13
2018-03-14T02:53:24.214Z,11.27
2018-03-14T02:55:52.360Z,11.12
2018-03-14T02:58:20.537Z,10.95
2018-03-14T03:00:49.356Z,10.50
2018-03-14T03:03:17.502Z,10.13
2018-03-14T03:05:45.798Z,9.07
2018-03-14T03:08:13.933Z,10.90
2018-03-14T03:10:42.843Z,9.23
2018-03-14T03:13:11.221Z,9.48
2018-03-14T03:15:40.057Z,10.00
2018-03-14T03:18:08.608Z,9.80
2018-03-14T03:20:36.782Z,8.95
2018-03-14T03:23:04.919Z,8.30
2018-03-14T03:25:33.817Z,9.48
2018-03-14T03:28:01.971Z,9.00
2018-03-14T03:30:31.338Z,8.30
2018-03-14T03:32:59.470Z,9.45
2018-03-14T03:35:27.748Z,8.38
2018-03-14T03:37:55.904Z,7.65
2018-03-14T03:40:25.699Z,9.25
2018-03-14T03:42:53.854Z,8.65
2018-03-14T03:45:21.981Z,8.60
2018-03-14T03:47:50.270Z,10.10
2018-03-14T03:50:18.425Z,8.35
2018-03-14T03:52:46.557Z,8.57
2018-03-14T03:55:14.690Z,8.48
2018-03-14T03:57:42.850Z,8.05
2018-03-14T04:00:10.986Z,9.40
2018-03-14T04:02:39.886Z,9.07
2018-03-14T04:05:08.814Z,8.82
2018-03-14T04:07:36.988Z,9.13
2018-03-14T04:10:05.119Z,8.80
2018-03-14T04:12:34.422Z,8.80
2018-03-14T04:15:03.357Z,9.82
2018-03-14T04:17:31.518Z,8.60
2018-03-14T04:19:59.657Z,7.22
2018-03-14T04:22:28.560Z,8.10
2018-03-14T04:24:56.697Z,9.27
2018-03-14T04:27:25.246Z,9.88
2018-03-14T04:29:53.411Z,9.25
2018-03-14T04:32:21.555Z,8.68
2018-03-14T04:34:49.954Z,8.25
2018-03-14T04:37:18.741Z,8.20
2018-03-14T04:39:46.881Z,7.80
2018-03-14T04:42:15.786Z,8.90
2018-03-14T04:44:43.955Z,8.30
2018-03-14T04:47:12.094Z,9.27
2018-03-14T04:49:40.997Z,8.18
2018-03-14T04:52:10.744Z,8.20
2018-03-14T04:54:38.886Z,8.13
2018-03-14T04:57:07.789Z,8.20
2018-03-14T04:59:35.946Z,9.02
2018-03-14T05:02:04.846Z,8.00
2018-03-14T05:04:33.402Z,8.25
2018-03-14T05:07:01.559Z,7.15
2018-03-14T05:09:29.690Z,8.13
2018-03-14T05:11:57.870Z,8.80
2018-03-14T05:14:26.006Z,7.57
2018-03-14T05:16:54.909Z,8.27
2018-03-14T05:19:23.062Z,7.65
2018-03-14T05:21:51.958Z,7.28
2018-03-14T05:24:20.857Z,7.25
2018-03-14T05:26:49.053Z,6.95
2018-03-14T05:29:17.198Z,7.20
2018-03-14T05:31:46.350Z,7.20
2018-03-14T05:34:14.507Z,7.00
2018-03-14T05:36:42.666Z,6.30
2018-03-14T05:39:10.799Z,6.87
2018-03-14T05:41:39.779Z,6.95
2018-03-14T05:44:07.897Z,6.07
2018-03-14T05:46:36.026Z,7.50
2018-03-14T05:49:04.185Z,5.12
2018-03-14T05:51:32.442Z,6.10
2018-03-14T05:54:00.606Z,6.75
2018-03-14T05:56:28.771Z,7.32
2018-03-14T05:58:56.902Z,6.85
2018-03-14T06:01:25.799Z,6.28
2018-03-14T06:03:54.823Z,5.90
2018-03-14T06:06:23.195Z,6.40
2018-03-14T06:08:51.389Z,6.85
2018-03-14T06:11:19.651Z,6.80
2018-03-14T06:13:47.825Z,5.78
2018-03-14T06:16:15.976Z,6.28
2018-03-14T06:18:44.130Z,6.12
2018-03-14T06:21:13.030Z,6.43
2018-03-14T06:23:41.165Z,6.03
2018-03-14T06:26:09.366Z,5.93
2018-03-14T06:28:38.262Z,5.72
2018-03-14T06:31:07.174Z,6.20
2018-03-14T06:33:35.333Z,6.10
2018-03-14T06:36:03.471Z,5.78
2018-03-14T06:38:31.709Z,5.70
2018-03-14T06:40:59.968Z,5.72
2018-03-14T06:43:28.903Z,6.20
2018-03-14T06:45:57.042Z,5.82
2018-03-14T06:48:25.211Z,5.80
2018-03-14T06:50:53.389Z,6.72
2018-03-14T06:53:22.128Z,6.05
2018-03-14T06:55:51.043Z,6.57
2018-03-14T06:58:37.021Z,6.75
2018-03-14T07:01:24.013Z,6.12
2018-03-14T07:04:10.247Z,5.57
2018-03-14T07:06:38.413Z,5.70
2018-03-14T07:09:06.613Z,6.18
2018-03-14T07:11:34.747Z,5.78
2018-03-14T07:14:03.660Z,6.60
2018-03-14T07:16:31.825Z,7.20
2018-03-14T07:19:00.021Z,6.50
2018-03-14T07:21:28.160Z,6.87
2018-03-14T07:23:57.105Z,6.40
2018-03-14T07:26:25.694Z,6.15
2018-03-14T07:28:53.826Z,6.68
2018-03-14T07:31:21.978Z,6.60
2018-03-14T07:33:50.879Z,7.78
2018-03-14T07:36:19.044Z,6.40
2018-03-14T07:38:47.198Z,8.05
2018-03-14T07:41:16.102Z,8.90
2018-03-14T07:43:45.033Z,7.45
2018-03-14T07:46:13.327Z,8.45
2018-03-14T07:48:41.487Z,7.90
2018-03-14T07:51:09.663Z,7.47
2018-03-14T07:53:37.808Z,8.60
2018-03-14T07:56:05.942Z,7.68
2018-03-14T07:58:34.895Z,9.30
2018-03-14T08:01:03.044Z,7.95
2018-03-14T08:03:31.214Z,8.02
2018-03-14T08:05:59.346Z,8.32
2018-03-14T08:08:27.478Z,9.20
2018-03-14T08:10:55.649Z,8.63
2018-03-14T08:13:23.880Z,8.52
2018-03-14T08:15:51.934Z,8.77
2018-03-14T08:18:20.108Z,9.25
2018-03-14T08:20:49.009Z,9.48
2018-03-14T08:23:17.945Z,8.35
2018-03-14T08:25:46.226Z,9.25
2018-03-14T08:28:14.370Z,8.18
2018-03-14T08:30:42.506Z,9.10
2018-03-14T08:33:11.213Z,10.18
2018-03-14T08:35:40.140Z,9.75
2018-03-14T08:38:08.347Z,8.63
2018-03-14T08:40:36.489Z,10.30
2018-03-14T08:43:04.645Z,9.80
2018-03-14T08:45:32.853Z,9.80
2018-03-14T08:48:01.362Z,10.68
2018-03-14T08:50:30.268Z,10.25
2018-03-14T08:52:59.342Z,10.13
2018-03-14T08:55:28.265Z,10.68
2018-03-14T08:57:56.412Z,11.50
2018-03-14T09:00:25.360Z,12.13
2018-03-14T09:02:53.512Z,9.90
2018-03-14T09:05:21.659Z,10.38
2018-03-14T09:07:49.845Z,12.23
2018-03-14T09:10:18.041Z,12.00
2018-03-14T09:12:46.182Z,10.73
2018-03-14T09:15:14.343Z,10.25
2018-03-14T09:17:43.270Z,11.02
2018-03-14T09:20:11.410Z,9.68
2018-03-14T09:22:40.438Z,9.32
2018-03-14T09:25:08.604Z,9.05
2018-03-14T09:27:36.789Z,9.15
2018-03-14T09:30:04.974Z,9.80
2018-03-14T09:32:33.121Z,10.20
2018-03-14T09:35:01.286Z,8.15
2018-03-14T09:37:29.442Z,10.40
2018-03-14T09:39:58.382Z,10.13
2018-03-14T09:42:26.518Z,9.53
2018-03-14T09:44:54.685Z,9.35
2018-03-14T09:47:23.629Z,10.30
2018-03-14T09:49:51.811Z,8.85
2018-03-14T09:52:19.983Z,8.93
2018-03-14T09:54:48.709Z,9.30
2018-03-14T09:57:16.868Z,8.87
2018-03-14T09:59:45.800Z,8.90
2018-03-14T10:02:13.942Z,9.68
2018-03-14T10:04:42.094Z,8.17
2018-03-14T10:07:10.265Z,7.60
2018-03-14T10:09:39.178Z,10.17
2018-03-14T10:12:07.756Z,8.50
2018-03-14T10:14:36.662Z,8.33
2018-03-14T10:17:04.806Z,8.80
2018-03-14T10:19:33.750Z,7.53
2018-03-14T10:22:01.898Z,8.30
2018-03-14T10:24:30.045Z,7.60
2018-03-14T10:26:58.982Z,6.93
2018-03-14T10:29:27.247Z,12.40
2018-03-14T10:31:55.390Z,8.03
2018-03-14T10:34:24.342Z,7.50
2018-03-14T10:36:52.486Z,7.90
2018-03-14T10:39:20.673Z,8.00
2018-03-14T10:41:48.938Z,8.40
2018-03-14T10:44:17.102Z,9.10
2018-03-14T10:46:45.246Z,8.80
2018-03-14T10:49:14.253Z,8.47
2018-03-14T10:51:42.364Z,9.40
2018-03-14T10:54:10.502Z,9.57
2018-03-14T10:56:38.691Z,21.00
2018-03-14T10:59:06.862Z,9.77
2018-03-14T11:01:38.867Z,10.00
2018-03-14T11:04:07.006Z,8.80
2018-03-14T11:06:35.151Z,8.33
2018-03-14T11:09:03.319Z,8.65
2018-03-14T11:11:32.265Z,8.23
2018-03-14T11:14:00.505Z,9.87
2018-03-14T11:16:28.663Z,8.30
2018-03-14T11:18:56.854Z,9.43
2018-03-14T11:21:25.022Z,9.83
2018-03-14T11:23:53.198Z,9.17
2018-03-14T11:26:21.334Z,8.33
2018-03-14T11:28:50.228Z,8.73
2018-03-14T11:31:18.396Z,8.40
2018-03-14T11:33:47.422Z,8.30
2018-03-14T11:36:16.411Z,10.25
2018-03-14T11:38:45.418Z,9.30
2018-03-14T11:41:13.590Z,8.30
2018-03-14T11:43:41.738Z,9.73
2018-03-14T11:46:10.691Z,10.00
2018-03-14T11:48:38.940Z,9.77
2018-03-14T11:51:07.089Z,10.10
2018-03-14T11:53:35.960Z,10.27
2018-03-14T11:56:04.263Z,8.80
2018-03-14T11:58:32.414Z,6.97
2018-03-14T12:01:00.728Z,6.20
2018-03-14T12:03:28.990Z,6.62
2018-03-14T12:05:57.146Z,6.28
2018-03-14T12:08:25.435Z,5.78
2018-03-14T12:10:53.619Z,6.20
2018-03-14T12:13:21.766Z,6.67
2018-03-14T12:15:49.905Z,6.57
2018-03-14T12:18:18.862Z,7.63
2018-03-14T12:20:47.043Z,7.70
2018-03-14T12:23:15.183Z,7.67
2018-03-14T12:25:43.363Z,8.00
2018-03-14T12:28:11.499Z,9.10
2018-03-14T12:30:40.430Z,8.37
2018-03-14T12:33:08.610Z,7.80
2018-03-14T12:35:36.763Z,7.65
2018-03-14T12:38:04.906Z,8.70
2018-03-14T12:40:33.855Z,8.53
2018-03-14T12:43:01.999Z,8.45
2018-03-14T12:45:30.947Z,8.40
2018-03-14T12:47:59.898Z,8.20
2018-03-14T12:50:28.040Z,8.53
2018-03-14T12:52:56.206Z,9.30
2018-03-14T12:55:24.397Z,9.47
2018-03-14T12:57:52.554Z,8.63
2018-03-14T13:00:21.624Z,10.20
2018-03-14T13:02:50.554Z,8.87
2018-03-14T13:05:18.694Z,9.17
2018-03-14T13:07:47.609Z,10.37
2018-03-14T13:10:15.770Z,9.50
2018-03-14T13:12:43.921Z,9.70
2018-03-14T13:15:12.822Z,9.20
2018-03-14T13:17:41.758Z,8.03
2018-03-14T13:20:09.893Z,9.93
2018-03-14T13:22:38.045Z,10.60
2018-03-14T13:25:06.974Z,9.50
2018-03-14T13:27:35.386Z,10.07
2018-03-14T13:30:03.555Z,9.67
2018-03-14T13:32:31.719Z,8.50
2018-03-14T13:34:59.863Z,9.63
2018-03-14T13:37:28.009Z,8.97
2018-03-14T13:39:56.940Z,9.20
2018-03-14T13:42:25.123Z,9.60
2018-03-14T13:44:53.259Z,9.43
2018-03-14T13:47:21.426Z,9.27
2018-03-14T13:49:50.341Z,9.47
2018-03-14T13:52:18.475Z,8.93
2018-03-14T13:54:47.402Z,10.10
2018-03-14T13:57:15.554Z,10.17
2018-03-14T13:59:44.495Z,9.07
2018-03-14T14:02:12.637Z,9.17
2018-03-14T14:04:40.790Z,9.13
2018-03-14T14:07:09.045Z,9.67
2018-03-14T14:09:37.190Z,9.80
2018-03-14T14:12:05.494Z,8.83
2018-03-14T14:14:34.431Z,10.17
2018-03-14T14:17:02.567Z,11.80
2018-03-14T14:19:31.479Z,10.53
2018-03-14T14:21:59.638Z,9.43
2018-03-14T14:24:28.572Z,8.40
2018-03-14T14:26:56.715Z,9.00
2018-03-14T14:29:24.900Z,8.60
2018-03-14T14:31:53.061Z,8.53
2018-03-14T14:34:21.243Z,7.80
2018-03-14T14:36:49.400Z,8.13
2018-03-14T14:39:17.577Z,8.03
2018-03-14T14:41:45.756Z,7.70
2018-03-14T14:44:13.921Z,7.30
2018-03-14T14:46:42.119Z,7.45
2018-03-14T14:49:10.298Z,7.33
2018-03-14T14:51:38.466Z,7.90
2018-03-14T14:54:06.801Z,7.55
2018-03-14T14:56:36.278Z,7.60
2018-03-14T14:59:05.570Z,8.20
2018-03-14T15:01:34.232Z,7.60
2018-03-14T15:04:14.864Z,6.87
2018-03-14T15:06:43.292Z,7.20
2018-03-14T15:09:22.608Z,6.13
2018-03-14T15:11:51.432Z,5.80
2018-03-14T15:14:20.872Z,6.10
2018-03-14T15:16:49.046Z,7.63
2018-03-14T15:19:17.195Z,7.07
2018-03-14T15:21:46.106Z,6.77
2018-03-14T15:24:14.266Z,5.97
2018-03-14T15:26:43.807Z,6.10
2018-03-14T15:29:11.967Z,5.57
2018-03-14T15:31:40.151Z,5.33
2018-03-14T15:34:08.934Z,5.73
2018-03-14T15:36:37.077Z,6.30
2018-03-14T15:39:05.242Z,5.95
2018-03-14T15:41:33.404Z,7.40
2018-03-14T15:44:02.321Z,6.00
2018-03-14T15:46:31.238Z,5.80
2018-03-14T15:48:59.420Z,5.50
2018-03-14T15:51:27.607Z,5.37
2018-03-14T15:53:55.764Z,5.37
2018-03-14T15:56:23.911Z,5.35
2018-03-14T15:58:52.082Z,5.82
2018-03-14T16:01:30.336Z,8.20
2018-03-14T16:03:58.814Z,7.75
2018-03-14T16:06:27.562Z,6.32
2018-03-14T16:08:55.716Z,5.55
2018-03-14T16:11:23.882Z,6.07
2018-03-14T16:13:52.022Z,6.33
2018-03-14T16:16:20.199Z,6.60
2018-03-14T16:18:48.382Z,5.90
2018-03-14T16:21:16.924Z,5.60
2018-03-14T16:23:45.097Z,6.00
2018-03-14T16:26:13.285Z,5.90
2018-03-14T16:28:41.431Z,5.47
2018-03-14T16:31:09.569Z,5.97
2018-03-14T16:33:38.513Z,6.22
2018-03-14T16:36:06.658Z,7.18
2018-03-14T16:38:34.803Z,6.93
2018-03-14T16:41:03.736Z,6.87
2018-03-14T16:43:31.878Z,8.32
2018-03-14T16:46:00.082Z,7.80
2018-03-14T16:48:28.251Z,6.97
2018-03-14T16:50:56.393Z,7.32
2018-03-14T16:53:25.614Z,7.15
2018-03-14T16:55:53.783Z,6.07
2018-03-14T16:58:21.922Z,6.60
2018-03-14T17:00:50.829Z,7.00
2018-03-14T17:03:18.997Z,6.40
2018-03-14T17:05:47.913Z,7.25
2018-03-14T17:08:16.095Z,7.57
2018-03-14T17:10:44.269Z,7.35
2018-03-14T17:13:12.407Z,6.87
2018-03-14T17:15:41.319Z,6.70
2018-03-14T17:18:09.746Z,7.70
2018-03-14T17:20:38.016Z,7.03
2018-03-14T17:23:06.570Z,7.65
2018-03-14T17:25:34.774Z,7.47
2018-03-14T17:28:02.942Z,7.47
2018-03-14T17:30:31.095Z,7.70
2018-03-14T17:32:59.294Z,6.68
2018-03-14T17:35:27.463Z,7.97
2018-03-14T17:37:55.707Z,8.68
2018-03-14T17:40:23.878Z,7.78
2018-03-14T17:42:57.638Z,7.82
2018-03-14T17:45:26.571Z,7.35
2018-03-14T17:47:54.745Z,8.10
2018-03-14T17:50:22.903Z,8.38
2018-03-14T17:52:51.280Z,7.47
2018-03-14T17:55:19.481Z,7.18
2018-03-14T17:57:47.676Z,7.93
2018-03-14T18:00:16.510Z,7.07
2018-03-14T18:02:44.656Z,7.12
2018-03-14T18:05:13.643Z,7.75
2018-03-14T18:07:41.779Z,7.87
2018-03-14T18:10:09.926Z,8.25
2018-03-14T18:12:38.091Z,8.80
2018-03-14T18:15:06.242Z,7.68
2018-03-14T18:17:35.146Z,9.68
2018-03-14T18:20:03.326Z,9.00
2018-03-14T18:22:31.477Z,8.93
2018-03-14T18:25:00.512Z,8.40
2018-03-14T18:27:28.808Z,8.93
2018-03-14T18:29:56.960Z,9.35
2018-03-14T18:32:25.124Z,9.95
2018-03-14T18:34:53.305Z,9.60
2018-03-14T18:37:21.499Z,11.82
2018-03-14T18:39:49.658Z,10.30
2018-03-14T18:42:17.832Z,11.88
2018-03-14T18:44:46.063Z,11.52
2018-03-14T18:47:14.994Z,11.77
2018-03-14T18:49:43.167Z,13.80
2018-03-14T18:52:11.353Z,11.12
2018-03-14T18:54:39.498Z,12.07
2018-03-14T18:57:07.646Z,11.18
2018-03-14T18:59:37.194Z,11.77
2018-03-14T19:02:05.357Z,10.75
2018-03-14T19:04:33.528Z,11.32
2018-03-14T19:07:01.717Z,11.23
2018-03-14T19:09:29.885Z,10.02
2018-03-14T19:11:58.036Z,10.90
2018-03-14T19:14:26.210Z,12.05
2018-03-14T19:16:54.358Z,10.70
2018-03-14T19:19:23.279Z,10.68
2018-03-14T19:21:51.470Z,10.60
2018-03-14T19:24:19.686Z,11.18
2018-03-14T19:26:49.370Z,9.35
2018-03-14T19:29:17.902Z,9.48
2018-03-14T19:31:46.058Z,10.27
2018-03-14T19:34:14.973Z,9.50
2018-03-14T19:36:43.155Z,11.07
2018-03-14T19:39:11.298Z,9.75
2018-03-14T19:41:40.219Z,9.50
2018-03-14T19:44:09.524Z,8.82
2018-03-14T19:46:37.658Z,10.32
2018-03-14T19:49:06.570Z,8.95
2018-03-14T19:51:34.739Z,8.48
2018-03-14T19:54:02.928Z,9.73
2018-03-14T19:56:31.502Z,9.07
2018-03-14T19:58:59.648Z,8.77
2018-03-14T20:01:28.558Z,8.50
2018-03-14T20:03:56.738Z,8.88
2018-03-14T20:06:24.893Z,7.72
2018-03-14T20:08:53.070Z,7.28
2018-03-14T20:11:21.278Z,8.70
2018-03-14T20:13:49.438Z,7.43
2018-03-14T20:16:17.610Z,8.40
2018-03-14T20:18:45.992Z,8.57
2018-03-14T20:21:14.167Z,8.90
2018-03-14T20:23:42.708Z,7.43
2018-03-14T20:26:11.642Z,8.63
2018-03-14T20:28:39.778Z,8.35
2018-03-14T20:31:07.926Z,9.27
2018-03-14T20:33:36.888Z,8.90
2018-03-14T20:36:05.058Z,9.52
2018-03-14T20:38:33.226Z,9.70
2018-03-14T20:41:01.373Z,9.20
2018-03-14T20:43:29.567Z,9.20
2018-03-14T20:45:57.758Z,13.95
2018-03-14T20:48:25.934Z,9.35
2018-03-14T20:50:54.104Z,10.00
2018-03-14T20:53:22.248Z,9.45
2018-03-14T20:55:51.162Z,9.65
2018-03-14T20:58:19.340Z,8.90
2018-03-14T21:00:47.476Z,8.75
2018-03-14T21:03:15.641Z,10.40
2018-03-14T21:05:43.835Z,11.88
2018-03-14T21:08:12.004Z,10.40
2018-03-14T21:10:40.149Z,10.98
2018-03-14T21:13:08.339Z,9.63
2018-03-14T21:15:36.528Z,10.40
2018-03-14T21:18:04.670Z,10.73
2018-03-14T21:20:32.879Z,11.35
2018-03-14T21:23:01.042Z,11.65
2018-03-14T21:25:29.714Z,10.77
2018-03-14T21:27:59.608Z,10.82
2018-03-14T21:30:28.367Z,10.77
2018-03-14T21:32:56.601Z,10.80
2018-03-14T21:35:24.765Z,10.90
2018-03-14T21:37:52.916Z,10.48
2018-03-14T21:40:21.095Z,11.02
2018-03-14T21:42:49.237Z,9.95
2018-03-14T21:45:17.406Z,11.07
2018-03-14T21:47:45.594Z,11.90
2018-03-14T21:50:14.648Z,11.20
2018-03-14T21:52:43.302Z,11.10
2018-03-14T21:55:12.334Z,11.05
2018-03-14T21:57:40.478Z,12.20
2018-03-14T22:00:08.749Z,11.35
2018-03-14T22:02:36.890Z,11.00
2018-03-14T22:05:06.231Z,10.82
2018-03-14T22:07:34.442Z,10.82
2018-03-14T22:10:03.120Z,10.88
2018-03-14T22:12:43.207Z,10.35
2018-03-14T22:15:22.354Z,10.35
2018-03-14T22:17:50.537Z,10.63
2018-03-14T22:20:18.696Z,10.13
2018-03-14T22:22:46.829Z,11.70
2018-03-14T22:25:15.075Z,12.93
2018-03-14T22:27:43.551Z,12.37
2018-03-14T22:30:12.911Z,9.63
2018-03-14T22:32:41.836Z,9.60
2018-03-14T22:35:09.987Z,10.70
2018-03-14T22:37:38.137Z,11.57
2018-03-14T22:40:07.063Z,11.98
2018-03-14T22:42:35.214Z,13.70
2018-03-14T22:45:03.392Z,12.18
2018-03-14T22:47:31.565Z,13.35
2018-03-14T22:49:59.710Z,13.02
2018-03-14T22:52:27.850Z,11.80
2018-03-14T22:54:56.106Z,13.55
2018-03-14T22:57:24.287Z,12.37
2018-03-14T22:59:52.438Z,10.63
2018-03-14T23:02:20.621Z,11.55
2018-03-14T23:04:48.782Z,10.85
2018-03-14T23:07:16.929Z,12.00
2018-03-14T23:09:45.861Z,11.07
2018-03-14T23:12:14.023Z,10.80
2018-03-14T23:14:42.212Z,10.35
2018-03-14T23:17:10.416Z,10.48
2018-03-14T23:19:38.559Z,11.00
2018-03-14T23:22:06.860Z,11.40
2018-03-14T23:24:35.022Z,11.02
2018-03-14T23:27:03.293Z,10.15
2018-03-14T23:29:31.479Z,8.95
2018-03-14T23:31:59.619Z,10.40
2018-03-14T23:34:28.582Z,11.68
2018-03-14T23:36:57.531Z,10.23
2018-03-14T23:39:25.682Z,9.88
2018-03-14T23:41:53.830Z,10.57
2018-03-14T23:44:21.995Z,10.90
2018-03-14T23:46:50.132Z,11.35
2018-03-14T23:49:18.327Z,11.68
2018-03-14T23:51:46.451Z,11.02
2018-03-14T23:54:14.598Z,10.68
2018-03-14T23:56:42.750Z,13.40
2018-03-14T23:59:11.661Z,10.85
